Terminal Aerodrome Forecast
Issued by NWS Wichita, KS

Home | Current Version | Previous Version | Text Only | Print | Product List | Glossary Off
Versions: 1 2 3 4 5 6 7 8 9 10 11 12 13 14 15 16 17

563
FTUS43 KICT 120537
TAFICT
TAF
KICT 120537Z 1206/1306 VRB05KT P6SM SCT250
     FM120700 25006KT P6SM SCT250
     FM120900 30007KT P6SM SCT250
     FM121200 35010KT P6SM SCT250
     FM121900 03012KT P6SM SCT250
     FM130000 06007KT P6SM SCT250=

USA.gov is the U.S. government's official web portal to all federal, state and local government web resources and services.